Adams, Minnesota
Current Conditions -  °F | °C
As of 8:16 AM on Thursday 29 Jan 2015 (Local Time) from KAUM Reporting Station
Haze Haze  
Wind Chill: -8°   Ceiling: 1100
Heat Index: -1°   Visibility: 5mi
Dew Point: -3°   Wind: 21mph
Humidity: 86%   Direction: 310°NW
Pressure: 30.07"   Gusts: 30mph
Location:  43.57°N, 92.72°W
Report Text: KAUM 291416Z AUTO 31018G26KT 5SM BR OVC011 M01/M03 A3007 RMK AO2
Loading
Personal Weather Stations






























Interactive Weather Map New forecast layout! Learn more

10-Day Weather Forecast

Advertisements
Track Severe Weather on mobile